Nearby METAR Reports



KADS - Dallas/Addison, Texas, USA
Distance from station: SSW 10mi, 16km
Updated: Thu, 25-Apr-2019 2:55am CDT
Mist, Overcast
Mist, Overcast
 Wind from calm
Wind: Calm
Temperature: 61°F , 16°C
Dew Point: 59°F , 15°C
Humidity: 94%
Barometer: 29.81 inHg , 1009.5 hPa
Summary: Mist
Clouds: Overcast
Visibility: 3 miles , 5 km
Cloud details: Overcast 400 ft
2019/04/25 07:55 KADS 250755Z AUTO 00000KT 3SM BR OVC004 16/15 A2981 RMK AO2 T01560152
KTKI - Mckinney, Texas, USA
Distance from station: ENE 11mi, 18km
Updated: Thu, 25-Apr-2019 2:53am CDT
Overcast
Overcast
 Wind from W
Wind: W 5 mph , 7 km/h
Temperature: 63°F , 17°C
Dew Point: 61°F , 16°C
Humidity: 94%
Barometer: 29.78 inHg , 1008.5 hPa
Clouds: Overcast
Visibility: 10 miles , 16 km
Cloud details: Few Clouds 2400 ft
Partly cloudy 4300 ft
Overcast 9000 ft
2019/04/25 07:53 KTKI 250753Z AUTO 27004KT 10SM FEW024 SCT043 OVC090 17/16 A2978 RMK AO2 SLP085 T01670161
 
KDAL - Dallas/Love Fld, Texas, USA
Distance from station: SSW 18mi, 30km
Updated: Thu, 25-Apr-2019 2:53am CDT
Mist, Mostly cloudy
Mist, Mostly cloudy
 Wind from W
Wind: W 3 mph , 6 km/h
Temperature: 63°F , 17°C
Dew Point: 61°F , 16°C
Humidity: 94%
Barometer: 29.79 inHg , 1008.8 hPa
Summary: Mist
Clouds: Mostly cloudy
Visibility: 6 miles , 10 km
Cloud details: Few Clouds 600 ft
Mostly cloudy 2800 ft
Mostly cloudy 15000 ft
2019/04/25 07:53 KDAL 250753Z 28003KT 6SM BR FEW006 BKN028 BKN150 17/16 A2979 RMK AO2 SLP081 T01720156 $
KDFW - Dallas/Ft Worth, Texas, USA
Distance from station: SW 21mi, 34km
Updated: Thu, 25-Apr-2019 2:53am CDT
Mostly cloudy
Mostly cloudy
 Wind from WSW
Wind: WSW 7 mph , 11 km/h
Temperature: 61°F , 16°C
Dew Point: 59°F , 15°C
Humidity: 94%
Barometer: 29.77 inHg , 1008.1 hPa
Clouds: Mostly cloudy
Visibility: 10 miles , 16 km
Cloud details: Few Clouds 700 ft
Partly cloudy 1500 ft
Mostly cloudy 3400 ft
2019/04/25 07:53 KDFW 250753Z 25006KT 10SM FEW007 SCT015 BKN034 16/15 A2977 RMK AO2 SLP077 T01560150
 
KF46 - Rockwall, Texas, USA
Distance from station: ESE 22mi, 35km
Updated: Thu, 25-Apr-2019 2:55am CDT
Mist, Overcast
Mist, Overcast
 Wind from calm
Wind: Calm
Temperature: 61°F , 16°C
Dew Point: 61°F , 16°C
Humidity: 100%
Barometer: 29.79 inHg , 1008.8 hPa
Summary: Mist
Clouds: Overcast
Visibility: 3 miles , 5 km
Cloud details: Partly cloudy 500 ft
Mostly cloudy 1200 ft
Overcast 1900 ft
2019/04/25 07:55 KF46 250755Z AUTO 00000KT 3SM BR SCT005 BKN012 OVC019 16/16 A2979 RMK AO2 T01640164
KDTO - Denton, Texas, USA
Distance from station: WNW 27mi, 43km
Updated: Wed, 24-Apr-2019 4:53pm CDT
NOT Current
Partly cloudy
Partly cloudy
 Wind from W
Wind: W 5 mph , 7 km/h
Temperature: 66°F , 19°C
Dew Point: 59°F , 15°C
Humidity: 78%
Barometer: 29.84 inHg , 1010.5 hPa
Clouds: Partly cloudy
Visibility: 10 miles , 16 km
Cloud details: Few Clouds 6500 ft
Partly cloudy 12000 ft
2019/04/24 21:53 KDTO 242153Z 26004KT 10SM FEW065 SCT120 19/15 A2984 RMK AO2 SLP099 T01890150
 
KHQZ - Mesquite, Texas, USA
Distance from station: SSE 28mi, 44km
Updated: Thu, 25-Apr-2019 2:55am CDT
Overcast
Overcast
 Wind from WSW
Wind: WSW 3 mph , 6 km/h
Temperature: 61°F , 16°C
Dew Point: 61°F , 16°C
Humidity: 100%
Barometer: 29.79 inHg , 1008.8 hPa
Clouds: Overcast
Visibility: 2 1/2 miles , 4 km
Cloud details: Mostly cloudy 300 ft
Mostly cloudy 2400 ft
Overcast 4300 ft
2019/04/25 07:55 KHQZ 250755Z AUTO 24003KT 2 1/2SM BKN003 BKN024 OVC043 16/16 A2979 RMK AO1 T01590159
KRBD - Dallas/Redbird, Texas, USA
Distance from station: SSW 30mi, 48km
Updated: Thu, 25-Apr-2019 2:53am CDT
Mist, Mostly cloudy
Mist, Mostly cloudy
 Wind from W
Wind: W 6 mph , 9 km/h
Temperature: 61°F , 16°C
Dew Point: 59°F , 15°C
Humidity: 94%
Barometer: 29.79 inHg , 1008.8 hPa
Summary: Mist
Clouds: Mostly cloudy
Visibility: 5 miles , 8 km
Cloud details: Mostly cloudy 2500 ft
2019/04/25 07:53 KRBD 250753Z AUTO 27005KT 5SM BR BKN025 16/15 A2979 RMK AO2 SLP081 T01560150
 
KGPM - Grand Prairie, Texas, USA
Distance from station: SSW 33mi, 53km
Updated: Thu, 25-Apr-2019 2:55am CDT
Overcast
Overcast
 Wind from WSW
Wind: WSW 5 mph , 7 km/h
Temperature: 61°F , 16°C
Dew Point: 61°F , 16°C
Humidity: 100%
Barometer: 29.81 inHg , 1009.5 hPa
Clouds: Overcast
Visibility: 7 miles , 11 km
Cloud details: Overcast 3000 ft
2019/04/25 07:55 KGPM 250755Z AUTO 25004KT 7SM OVC030 16/16 A2981 RMK AO2 T01600160
KAFW - Ft Worth/Allianc, Texas, USA
Distance from station: WSW 34mi, 55km
Updated: Thu, 25-Apr-2019 2:53am CDT
Overcast
Overcast
 Wind from W
Wind: W 8 mph , 13 km/h
Temperature: 61°F , 16°C
Dew Point: 57°F , 14°C
Humidity: 88%
Barometer: 29.79 inHg , 1008.8 hPa
Clouds: Overcast
Visibility: 7 miles , 11 km
Cloud details: Mostly cloudy 2700 ft
Overcast 17000 ft
2019/04/25 07:53 KAFW 250753Z 27007KT 7SM BKN027 OVC170 16/14 A2979 RMK AO2 SLP080 T01610144
 
KLNC - Lancaster, Texas, USA
Distance from station: S 36mi, 58km
Updated: Thu, 25-Apr-2019 2:55am CDT
Mist, Mostly cloudy
Mist, Mostly cloudy
 Wind from calm
Wind: Calm
Temperature: 61°F , 16°C
Dew Point: 59°F , 15°C
Humidity: 94%
Barometer: 29.81 inHg , 1009.5 hPa
Summary: Mist
Clouds: Mostly cloudy
Visibility: 4 miles , 6 km
Cloud details: Mostly cloudy 1700 ft
Mostly cloudy 3400 ft
2019/04/25 07:55 KLNC 250755Z AUTO 00000KT 4SM BR BKN017 BKN034 16/15 A2981 RMK AO2 T01550150
KGKY - Arlington, Texas, USA
Distance from station: SSW 36mi, 59km
Updated: Thu, 25-Apr-2019 2:53am CDT
Overcast
Overcast
 Wind from WSW
Wind: WSW 6 mph , 9 km/h
Temperature: 61°F , 16°C
Dew Point: 59°F , 15°C
Humidity: 94%
Barometer: 29.80 inHg , 1009.1 hPa
Clouds: Overcast
Visibility: 10 miles , 16 km
Cloud details: Overcast 2900 ft
2019/04/25 07:53 KGKY 250753Z AUTO 25005KT 10SM OVC029 16/15 A2980 RMK AO2 SLP084 T01610150 $
 
KTRL - Terrell, Texas, USA
Distance from station: SE 39mi, 63km
Updated: Thu, 25-Apr-2019 2:53am CDT
Fog, Overcast
Fog, Overcast
 Wind from WSW
Wind: WSW 6 mph , 9 km/h
Temperature: 61°F , 16°C
Dew Point: 59°F , 15°C
Humidity: 94%
Barometer: 29.79 inHg , 1008.8 hPa
Summary: Fog
Clouds: Overcast
Visibility: 1/4 mile , 0.4 km
Cloud details: Overcast 200 ft
2019/04/25 07:53 KTRL 250753Z AUTO 25005KT 1/4SM FG VV002 16/15 A2979 RMK AO2 SLP083 T01610150
KGVT - Greenville/Major, Texas, USA
Distance from station: E 40mi, 64km
Updated: Thu, 25-Apr-2019 2:50am CDT
Mostly cloudy
Mostly cloudy
 Wind from calm
Wind: Calm
Temperature: 63°F , 17°C
Dew Point: 63°F , 17°C
Humidity: 100%
Barometer: 29.78 inHg , 1008.5 hPa
Clouds: Mostly cloudy
Visibility: 7 miles , 11 km
Cloud details: Partly cloudy 300 ft
Mostly cloudy 2400 ft
Mostly cloudy 5000 ft
2019/04/25 07:50 KGVT 250750Z AUTO 00000KT 7SM SCT003 BKN024 BKN050 17/17 A2978 RMK AO2
 
KFTW - Fort Worth, Texas, USA
Distance from station: WSW 40mi, 65km
Updated: Thu, 25-Apr-2019 2:53am CDT
Few Clouds
Few Clouds
 Wind from WSW
Wind: WSW 6 mph , 9 km/h
Temperature: 57°F , 14°C
Dew Point: 57°F , 14°C
Humidity: 100%
Barometer: 29.79 inHg , 1008.8 hPa
Clouds: Few Clouds
Visibility: 8 miles , 13 km
Cloud details: Few Clouds 2500 ft
2019/04/25 07:53 KFTW 250753Z 25005KT 8SM FEW025 14/14 A2979 RMK AO2 SLP084 T01440144
KGYI - Sherman/Denison, Texas, USA
Distance from station: N 43mi, 69km
Updated: Thu, 25-Apr-2019 2:55am CDT
Overcast
Overcast
 Wind from calm
Wind: Calm
Temperature: 61°F , 16°C
Dew Point: 59°F , 15°C
Humidity: 94%
Barometer: 29.79 inHg , 1008.8 hPa
Clouds: Overcast
Visibility: 7 miles , 11 km
Cloud details: Partly cloudy 6000 ft
Overcast 7500 ft
2019/04/25 07:55 KGYI 250755Z AUTO 00000KT 7SM SCT060 OVC075 16/15 A2979 RMK AO2 T01570152
 
KNFW - Fort Worth Nas, Texas, USA
Distance from station: WSW 45mi, 73km
Updated: Thu, 25-Apr-2019 2:52am CDT
Mostly cloudy
Mostly cloudy
 Wind from WSW
Wind: WSW 7 mph , 11 km/h
Temperature: 61°F , 16°C
Dew Point: 57°F , 14°C
Humidity: 88%
Barometer: 29.80 inHg , 1009.1 hPa
Clouds: Mostly cloudy
Visibility: 10 miles , 16 km
Cloud details: Mostly cloudy 2600 ft
2019/04/25 07:52 KNFW 250752Z AUTO 25006KT 10SM BKN026 16/14 A2980 RMK AO2 SLP077 T01610144 VISNO N $
KGLE - Gainesville, Texas, USA
Distance from station: NW 46mi, 74km
Updated: Thu, 25-Apr-2019 2:55am CDT
Clear
Clear
 Wind from calm
Wind: Calm
Temperature: 59°F , 15°C
Dew Point: 57°F , 14°C
Humidity: 94%
Barometer: 29.81 inHg , 1009.5 hPa
Clouds: Clear
Visibility: 10 miles , 16 km
2019/04/25 07:55 KGLE 250755Z AUTO 00000KT 10SM CLR 15/14 A2981 RMK AO2 T01450137
 
KJWY - Midlothian/Wax, Texas, USA
Distance from station: SSW 46mi, 74km
Updated: Thu, 25-Apr-2019 2:55am CDT
Overcast
Overcast
 Wind from W
Wind: W 5 mph , 7 km/h
Temperature: 61°F , 16°C
Dew Point: 61°F , 16°C
Humidity: 100%
Barometer: 29.81 inHg , 1009.5 hPa
Clouds: Overcast
Visibility: 7 miles , 11 km
Cloud details: Overcast 2400 ft
2019/04/25 07:55 KJWY 250755Z AUTO 28004KT 7SM OVC024 16/16 A2981 RMK AO2 T01550155
KFWS - Fort Worth/88d, Texas, USA
Distance from station: SW 49mi, 79km
Updated: Thu, 25-Apr-2019 2:55am CDT
Overcast
Overcast
 Wind from W
Wind: W 5 mph , 7 km/h
Temperature: 61°F , 16°C
Dew Point: 59°F , 15°C
Humidity: 94%
Barometer: 29.82 inHg , 1009.8 hPa
Clouds: Overcast
Visibility: 10 miles , 16 km
Cloud details: Overcast 2200 ft
2019/04/25 07:55 KFWS 250755Z AUTO 27004KT 10SM OVC022 16/15 A2982 RMK AO2 T01560150